Terminal Aerodrome Forecast
Issued by NWS Cleveland, OH

Home | Current Version | Previous Version | Text Only | Print | Product List | Glossary Off
Versions: 1 2 3 4 5 6 7 8 9 10 11 12 13 14 15 16 17 18 19 20 21

694
FTUS41 KCLE 241947 AAA
TAFYNG
TAF AMD
KYNG 241947Z 2420/2518 12012KT P6SM OVC035
      TEMPO 2420/2424 2SM -SHRA OVC025
     FM250000 12012KT 5SM -SHRA BR OVC015
     FM250300 12012KT 3SM -SHRA OVC008
     FM250900 14007KT 3SM BR VCSH OVC008
     FM251400 18007KT 6SM BR VCSH OVC012=

USA.gov is the U.S. government's official web portal to all federal, state and local government web resources and services.